sensor_id;sensor_type;location;lat;lon;timestamp;pressure;altitude;pressure_sealevel;temperature;humidity
54876;BME280;40764;48.472;8.166;2023-05-21T00:04:31;97766.03;;;13.61;100.00
54876;BME280;40764;48.472;8.166;2023-05-21T00:10:32;97767.13;;;13.69;100.00
54876;BME280;40764;48.472;8.166;2023-05-21T00:16:33;97762.47;;;13.60;100.00
54876;BME280;40764;48.472;8.166;2023-05-21T00:22:33;97761.16;;;13.67;100.00
54876;BME280;40764;48.472;8.166;2023-05-21T00:28:35;97748.22;;;13.58;100.00
54876;BME280;40764;48.472;8.166;2023-05-21T00:34:35;97753.91;;;13.45;100.00
54876;BME280;40764;48.472;8.166;2023-05-21T00:40:36;97747.94;;;13.43;100.00
54876;BME280;40764;48.472;8.166;2023-05-21T00:46:36;97736.31;;;13.46;100.00
54876;BME280;40764;48.472;8.166;2023-05-21T00:52:37;97736.81;;;13.39;100.00
54876;BME280;40764;48.472;8.166;2023-05-21T00:58:40;97741.63;;;13.16;100.00
54876;BME280;40764;48.472;8.166;2023-05-21T01:04:41;97734.53;;;13.24;100.00
54876;BME280;40764;48.472;8.166;2023-05-21T01:10:42;97741.19;;;13.31;100.00
54876;BME280;40764;48.472;8.166;2023-05-21T01:16:46;97731.31;;;13.13;100.00
54876;BME280;40764;48.472;8.166;2023-05-21T01:22:57;97738.25;;;13.28;100.00
54876;BME280;40764;48.472;8.166;2023-05-21T01:28:57;97740.03;;;13.24;100.00
54876;BME280;40764;48.472;8.166;2023-05-21T01:35:10;97735.50;;;13.28;100.00
54876;BME280;40764;48.472;8.166;2023-05-21T01:41:13;97728.41;;;13.18;100.00
54876;BME280;40764;48.472;8.166;2023-05-21T01:47:17;97729.41;;;13.31;100.00
54876;BME280;40764;48.472;8.166;2023-05-21T01:53:17;97731.63;;;13.29;100.00
54876;BME280;40764;48.472;8.166;2023-05-21T01:59:18;97738.59;;;13.35;100.00
54876;BME280;40764;48.472;8.166;2023-05-21T02:05:19;97725.34;;;13.11;100.00
54876;BME280;40764;48.472;8.166;2023-05-21T02:11:19;97723.56;;;13.07;100.00
54876;BME280;40764;48.472;8.166;2023-05-21T02:17:19;97721.28;;;13.09;100.00
54876;BME280;40764;48.472;8.166;2023-05-21T02:23:20;97718.06;;;13.07;100.00
54876;BME280;40764;48.472;8.166;2023-05-21T02:29:21;97720.66;;;13.03;100.00
54876;BME280;40764;48.472;8.166;2023-05-21T02:35:21;97707.56;;;12.83;100.00
54876;BME280;40764;48.472;8.166;2023-05-21T02:41:21;97704.97;;;12.86;100.00
54876;BME280;40764;48.472;8.166;2023-05-21T02:47:22;97711.59;;;12.94;100.00
54876;BME280;40764;48.472;8.166;2023-05-21T02:53:22;97712.25;;;12.82;100.00
54876;BME280;40764;48.472;8.166;2023-05-21T02:59:23;97708.69;;;12.90;100.00
54876;BME280;40764;48.472;8.166;2023-05-21T03:05:23;97711.28;;;12.87;100.00
54876;BME280;40764;48.472;8.166;2023-05-21T03:11:23;97713.53;;;12.85;100.00
54876;BME280;40764;48.472;8.166;2023-05-21T03:17:25;97716.44;;;12.80;100.00
54876;BME280;40764;48.472;8.166;2023-05-21T03:23:25;97713.53;;;12.76;100.00
54876;BME280;40764;48.472;8.166;2023-05-21T03:29:26;97722.22;;;12.61;100.00
54876;BME280;40764;48.472;8.166;2023-05-21T03:35:26;97727.19;;;12.50;100.00
54876;BME280;40764;48.472;8.166;2023-05-21T03:41:27;97731.09;;;12.58;100.00
54876;BME280;40764;48.472;8.166;2023-05-21T03:47:27;97724.47;;;12.50;100.00
54876;BME280;40764;48.472;8.166;2023-05-21T03:53:27;97732.69;;;12.50;100.00
54876;BME280;40764;48.472;8.166;2023-05-21T03:59:27;97749.16;;;12.59;100.00
54876;BME280;40764;48.472;8.166;2023-05-21T04:05:28;97739.94;;;12.55;100.00
54876;BME280;40764;48.472;8.166;2023-05-21T04:11:28;97749.16;;;12.59;100.00
54876;BME280;40764;48.472;8.166;2023-05-21T04:17:29;97759.00;;;12.68;100.00
54876;BME280;40764;48.472;8.166;2023-05-21T04:23:29;97764.84;;;12.76;100.00
54876;BME280;40764;48.472;8.166;2023-05-21T04:29:29;97769.38;;;12.80;100.00
54876;BME280;40764;48.472;8.166;2023-05-21T04:35:29;97774.38;;;12.87;100.00
54876;BME280;40764;48.472;8.166;2023-05-21T04:41:30;97776.63;;;12.85;100.00
54876;BME280;40764;48.472;8.166;2023-05-21T04:47:30;97779.38;;;12.85;100.00
54876;BME280;40764;48.472;8.166;2023-05-21T04:53:34;97774.97;;;12.66;100.00
54876;BME280;40764;48.472;8.166;2023-05-21T04:59:34;97780.34;;;12.97;100.00
54876;BME280;40764;48.472;8.166;2023-05-21T05:05:35;97785.69;;;13.11;100.00
54876;BME280;40764;48.472;8.166;2023-05-21T05:11:35;97778.47;;;13.32;100.00
54876;BME280;40764;48.472;8.166;2023-05-21T05:17:35;97777.34;;;13.42;100.00
54876;BME280;40764;48.472;8.166;2023-05-21T05:23:36;97773.59;;;13.73;100.00
54876;BME280;40764;48.472;8.166;2023-05-21T05:29:36;97770.16;;;13.93;100.00
54876;BME280;40764;48.472;8.166;2023-05-21T05:35:37;97765.78;;;13.92;100.00
54876;BME280;40764;48.472;8.166;2023-05-21T05:41:37;97761.59;;;13.94;100.00
54876;BME280;40764;48.472;8.166;2023-05-21T05:47:37;97767.66;;;14.09;100.00
54876;BME280;40764;48.472;8.166;2023-05-21T05:53:38;97772.97;;;14.22;100.00
54876;BME280;40764;48.472;8.166;2023-05-21T05:59:38;97766.41;;;14.53;100.00
54876;BME280;40764;48.472;8.166;2023-05-21T06:05:38;97763.56;;;14.91;100.00
54876;BME280;40764;48.472;8.166;2023-05-21T06:11:38;97769.97;;;15.25;100.00
54876;BME280;40764;48.472;8.166;2023-05-21T06:17:39;97763.06;;;15.39;100.00
54876;BME280;40764;48.472;8.166;2023-05-21T06:23:40;97766.94;;;15.59;100.00
54876;BME280;40764;48.472;8.166;2023-05-21T06:29:40;97756.44;;;15.73;100.00
54876;BME280;40764;48.472;8.166;2023-05-21T06:35:41;97759.03;;;15.91;100.00
54876;BME280;40764;48.472;8.166;2023-05-21T06:41:41;97754.81;;;16.05;98.71
54876;BME280;40764;48.472;8.166;2023-05-21T06:47:41;97747.38;;;16.30;97.23
54876;BME280;40764;48.472;8.166;2023-05-21T06:53:42;97744.06;;;16.61;94.77
54876;BME280;40764;48.472;8.166;2023-05-21T06:59:42;97743.47;;;16.92;93.09
54876;BME280;40764;48.472;8.166;2023-05-21T07:05:43;97739.78;;;17.41;91.59
54876;BME280;40764;48.472;8.166;2023-05-21T07:11:43;97738.41;;;17.62;88.33
54876;BME280;40764;48.472;8.166;2023-05-21T07:17:43;97741.78;;;17.84;87.13
54876;BME280;40764;48.472;8.166;2023-05-21T07:23:43;97747.81;;;18.17;85.86
54876;BME280;40764;48.472;8.166;2023-05-21T07:29:44;97749.16;;;18.39;84.07
54876;BME280;40764;48.472;8.166;2023-05-21T07:35:45;97737.13;;;18.63;82.69
54876;BME280;40764;48.472;8.166;2023-05-21T07:41:45;97739.69;;;18.87;81.34
54876;BME280;40764;48.472;8.166;2023-05-21T07:47:46;97736.00;;;18.99;82.88
54876;BME280;40764;48.472;8.166;2023-05-21T07:53:46;97731.31;;;18.84;82.87
54876;BME280;40764;48.472;8.166;2023-05-21T07:59:46;97727.81;;;18.87;82.92
54876;BME280;40764;48.472;8.166;2023-05-21T08:05:47;97736.56;;;18.73;83.64
54876;BME280;40764;48.472;8.166;2023-05-21T08:11:48;97734.69;;;18.62;84.60
54876;BME280;40764;48.472;8.166;2023-05-21T08:17:48;97741.59;;;18.68;84.39
54876;BME280;40764;48.472;8.166;2023-05-21T08:23:51;97744.63;;;18.63;85.21
54876;BME280;40764;48.472;8.166;2023-05-21T08:29:51;97743.47;;;18.79;84.93
54876;BME280;40764;48.472;8.166;2023-05-21T08:35:52;97736.72;;;18.96;84.70
54876;BME280;40764;48.472;8.166;2023-05-21T08:41:56;97743.59;;;19.22;84.03
54876;BME280;40764;48.472;8.166;2023-05-21T08:48:03;97743.09;;;19.35;82.92
54876;BME280;40764;48.472;8.166;2023-05-21T08:54:04;97746.63;;;19.52;81.58
54876;BME280;40764;48.472;8.166;2023-05-21T09:00:06;97751.53;;;19.77;81.57
54876;BME280;40764;48.472;8.166;2023-05-21T09:06:10;97750.63;;;19.93;79.52
54876;BME280;40764;48.472;8.166;2023-05-21T09:12:13;97750.41;;;20.01;79.99
54876;BME280;40764;48.472;8.166;2023-05-21T09:18:13;97751.41;;;20.35;78.70
54876;BME280;40764;48.472;8.166;2023-05-21T09:24:14;97734.56;;;20.48;77.57
54876;BME280;40764;48.472;8.166;2023-05-21T09:30:16;97732.03;;;20.62;78.16
54876;BME280;40764;48.472;8.166;2023-05-21T09:36:18;97740.25;;;20.81;76.31
54876;BME280;40764;48.472;8.166;2023-05-21T09:42:19;97734.84;;;20.88;75.64
54876;BME280;40764;48.472;8.166;2023-05-21T09:48:36;97745.09;;;20.84;74.15
54876;BME280;40764;48.472;8.166;2023-05-21T09:54:38;97737.56;;;20.85;75.18
54876;BME280;40764;48.472;8.166;2023-05-21T10:00:38;97731.63;;;20.86;74.23
54876;BME280;40764;48.472;8.166;2023-05-21T10:06:42;97724.28;;;21.01;74.33
54876;BME280;40764;48.472;8.166;2023-05-21T10:12:45;97719.19;;;21.07;74.94
54876;BME280;40764;48.472;8.166;2023-05-21T10:18:46;97715.66;;;21.10;72.83
54876;BME280;40764;48.472;8.166;2023-05-21T10:24:49;97719.50;;;21.24;72.79
54876;BME280;40764;48.472;8.166;2023-05-21T10:30:50;97713.38;;;21.42;73.70
54876;BME280;40764;48.472;8.166;2023-05-21T10:36:53;97708.53;;;21.39;74.00
54876;BME280;40764;48.472;8.166;2023-05-21T10:49:53;97705.41;;;21.74;72.44
54876;BME280;40764;48.472;8.166;2023-05-21T11:02:18;97693.50;;;22.14;73.03
54876;BME280;40764;48.472;8.166;2023-05-21T11:20:32;97699.38;;;22.49;72.35
54876;BME280;40764;48.472;8.166;2023-05-21T11:39:07;97685.00;;;22.95;69.44
54876;BME280;40764;48.472;8.166;2023-05-21T11:45:09;97681.97;;;23.22;69.46
54876;BME280;40764;48.472;8.166;2023-05-21T11:51:09;97685.59;;;23.40;69.92
54876;BME280;40764;48.472;8.166;2023-05-21T11:57:10;97685.69;;;23.54;69.15
54876;BME280;40764;48.472;8.166;2023-05-21T12:03:12;97689.41;;;23.97;66.90
54876;BME280;40764;48.472;8.166;2023-05-21T12:09:13;97687.78;;;23.96;67.41
54876;BME280;40764;48.472;8.166;2023-05-21T12:15:13;97690.63;;;24.07;67.31
54876;BME280;40764;48.472;8.166;2023-05-21T12:21:16;97681.09;;;24.54;66.54
54876;BME280;40764;48.472;8.166;2023-05-21T12:27:16;97689.06;;;24.49;66.16
54876;BME280;40764;48.472;8.166;2023-05-21T12:33:17;97688.28;;;24.66;64.42
54876;BME280;40764;48.472;8.166;2023-05-21T12:39:18;97678.19;;;25.29;63.51
54876;BME280;40764;48.472;8.166;2023-05-21T12:45:19;97670.53;;;25.37;63.01
54876;BME280;40764;48.472;8.166;2023-05-21T12:51:21;97669.72;;;25.40;61.81
54876;BME280;40764;48.472;8.166;2023-05-21T12:57:23;97680.00;;;25.64;62.05
54876;BME280;40764;48.472;8.166;2023-05-21T13:03:25;97668.41;;;25.76;61.61
54876;BME280;40764;48.472;8.166;2023-05-21T13:09:25;97672.78;;;25.77;61.20
54876;BME280;40764;48.472;8.166;2023-05-21T13:15:25;97672.78;;;25.77;61.91
54876;BME280;40764;48.472;8.166;2023-05-21T13:21:26;97686.53;;;25.36;62.49
54876;BME280;40764;48.472;8.166;2023-05-21T13:27:26;97679.44;;;25.10;62.61
54876;BME280;40764;48.472;8.166;2023-05-21T13:33:27;97677.03;;;25.16;62.53
54876;BME280;40764;48.472;8.166;2023-05-21T13:39:27;97664.75;;;25.83;60.77
54876;BME280;40764;48.472;8.166;2023-05-21T13:45:28;97670.03;;;25.74;59.78
54876;BME280;40764;48.472;8.166;2023-05-21T13:51:28;97668.91;;;25.50;59.25
54876;BME280;40764;48.472;8.166;2023-05-21T13:57:28;97672.59;;;25.25;60.34
54876;BME280;40764;48.472;8.166;2023-05-21T14:03:29;97671.81;;;25.25;60.09
54876;BME280;40764;48.472;8.166;2023-05-21T14:09:30;97675.81;;;25.13;60.08
54876;BME280;40764;48.472;8.166;2023-05-21T14:15:30;97671.06;;;24.85;60.31
54876;BME280;40764;48.472;8.166;2023-05-21T14:21:34;97664.75;;;24.60;69.02
54876;BME280;40764;48.472;8.166;2023-05-21T14:27:39;97665.13;;;24.62;73.54
54876;BME280;40764;48.472;8.166;2023-05-21T14:33:42;97664.31;;;24.08;76.23
54876;BME280;40764;48.472;8.166;2023-05-21T14:39:43;97667.28;;;23.39;80.97
54876;BME280;40764;48.472;8.166;2023-05-21T14:45:43;97659.25;;;23.20;83.95
54876;BME280;40764;48.472;8.166;2023-05-21T14:51:43;97668.41;;;23.20;88.50
54876;BME280;40764;48.472;8.166;2023-05-21T14:57:47;97668.66;;;22.90;90.72
54876;BME280;40764;48.472;8.166;2023-05-21T15:03:47;97683.00;;;22.96;92.29
54876;BME280;40764;48.472;8.166;2023-05-21T15:09:48;97700.09;;;22.87;93.08
54876;BME280;40764;48.472;8.166;2023-05-21T15:15:48;97693.59;;;22.76;93.77
54876;BME280;40764;48.472;8.166;2023-05-21T15:21:48;97696.34;;;22.69;96.25
54876;BME280;40764;48.472;8.166;2023-05-21T15:27:50;97685.41;;;22.97;97.04
54876;BME280;40764;48.472;8.166;2023-05-21T15:33:51;97688.94;;;22.87;95.54
54876;BME280;40764;48.472;8.166;2023-05-21T15:39:51;97696.19;;;23.06;97.39
54876;BME280;40764;48.472;8.166;2023-05-21T15:45:53;97701.72;;;22.95;97.61
54876;BME280;40764;48.472;8.166;2023-05-21T15:52:07;97713.22;;;22.86;98.12
54876;BME280;40764;48.472;8.166;2023-05-21T15:58:07;97711.47;;;22.71;98.81
54876;BME280;40764;48.472;8.166;2023-05-21T16:04:08;97705.09;;;22.71;99.92
54876;BME280;40764;48.472;8.166;2023-05-21T16:10:11;97708.09;;;22.48;99.69
54876;BME280;40764;48.472;8.166;2023-05-21T16:16:11;97711.38;;;22.57;99.79
54876;BME280;40764;48.472;8.166;2023-05-21T16:22:11;97716.50;;;22.51;99.55
54876;BME280;40764;48.472;8.166;2023-05-21T16:28:12;97723.59;;;22.45;100.00
54876;BME280;40764;48.472;8.166;2023-05-21T16:34:15;97718.72;;;22.32;100.00
54876;BME280;40764;48.472;8.166;2023-05-21T16:40:15;97721.16;;;22.37;100.00
54876;BME280;40764;48.472;8.166;2023-05-21T16:46:16;97720.53;;;22.13;100.00
54876;BME280;40764;48.472;8.166;2023-05-21T16:52:16;97726.97;;;21.84;100.00
54876;BME280;40764;48.472;8.166;2023-05-21T16:58:16;97722.88;;;21.74;100.00
54876;BME280;40764;48.472;8.166;2023-05-21T17:04:17;97733.03;;;21.59;100.00
54876;BME280;40764;48.472;8.166;2023-05-21T17:10:18;97727.34;;;21.49;100.00
54876;BME280;40764;48.472;8.166;2023-05-21T17:16:18;97729.97;;;21.38;100.00
54876;BME280;40764;48.472;8.166;2023-05-21T17:22:25;97733.00;;;21.26;100.00
54876;BME280;40764;48.472;8.166;2023-05-21T17:28:25;97732.25;;;21.02;100.00
54876;BME280;40764;48.472;8.166;2023-05-21T17:34:26;97738.69;;;21.10;100.00
54876;BME280;40764;48.472;8.166;2023-05-21T17:40:30;97740.13;;;20.97;100.00
54876;BME280;40764;48.472;8.166;2023-05-21T17:46:30;97751.63;;;20.72;100.00
54876;BME280;40764;48.472;8.166;2023-05-21T17:52:31;97752.22;;;20.59;100.00
54876;BME280;40764;48.472;8.166;2023-05-21T17:58:31;97751.41;;;20.35;100.00
54876;BME280;40764;48.472;8.166;2023-05-21T18:04:31;97755.88;;;20.21;100.00
54876;BME280;40764;48.472;8.166;2023-05-21T18:10:31;97761.19;;;20.06;100.00
54876;BME280;40764;48.472;8.166;2023-05-21T18:16:32;97757.19;;;19.85;100.00
54876;BME280;40764;48.472;8.166;2023-05-21T18:22:32;97757.06;;;19.58;100.00
54876;BME280;40764;48.472;8.166;2023-05-21T18:28:33;97762.22;;;19.40;100.00
54876;BME280;40764;48.472;8.166;2023-05-21T18:34:34;97766.06;;;19.16;100.00
54876;BME280;40764;48.472;8.166;2023-05-21T18:40:35;97767.31;;;19.03;100.00
54876;BME280;40764;48.472;8.166;2023-05-21T18:46:36;97763.19;;;18.78;100.00
54876;BME280;40764;48.472;8.166;2023-05-21T18:52:36;97763.09;;;18.58;100.00
54876;BME280;40764;48.472;8.166;2023-05-21T18:58:36;97770.44;;;18.51;100.00
54876;BME280;40764;48.472;8.166;2023-05-21T19:04:37;97771.56;;;18.34;100.00
54876;BME280;40764;48.472;8.166;2023-05-21T19:10:39;97782.63;;;18.18;100.00
54876;BME280;40764;48.472;8.166;2023-05-21T19:16:41;97787.59;;;17.97;100.00
54876;BME280;40764;48.472;8.166;2023-05-21T19:22:53;97791.97;;;17.70;100.00
54876;BME280;40764;48.472;8.166;2023-05-21T19:28:54;97803.63;;;17.51;100.00
54876;BME280;40764;48.472;8.166;2023-05-21T19:34:54;97798.50;;;17.25;100.00
54876;BME280;40764;48.472;8.166;2023-05-21T19:40:59;97809.47;;;17.22;100.00
54876;BME280;40764;48.472;8.166;2023-05-21T19:47:01;97821.56;;;17.05;100.00
54876;BME280;40764;48.472;8.166;2023-05-21T19:53:03;97825.50;;;16.80;100.00
54876;BME280;40764;48.472;8.166;2023-05-21T19:59:04;97828.09;;;16.64;100.00
54876;BME280;40764;48.472;8.166;2023-05-21T20:05:04;97831.66;;;16.64;100.00
54876;BME280;40764;48.472;8.166;2023-05-21T20:11:05;97835.09;;;16.49;100.00
54876;BME280;40764;48.472;8.166;2023-05-21T20:17:05;97837.00;;;16.36;100.00
54876;BME280;40764;48.472;8.166;2023-05-21T20:23:06;97841.91;;;16.19;100.00
54876;BME280;40764;48.472;8.166;2023-05-21T20:29:06;97846.94;;;16.17;100.00
54876;BME280;40764;48.472;8.166;2023-05-21T20:35:07;97848.88;;;16.04;100.00
54876;BME280;40764;48.472;8.166;2023-05-21T20:41:08;97850.84;;;15.83;100.00
54876;BME280;40764;48.472;8.166;2023-05-21T20:47:09;97844.88;;;15.80;100.00
54876;BME280;40764;48.472;8.166;2023-05-21T20:53:11;97853.22;;;15.72;100.00
54876;BME280;40764;48.472;8.166;2023-05-21T20:59:15;97841.97;;;15.56;100.00
54876;BME280;40764;48.472;8.166;2023-05-21T21:05:15;97836.53;;;15.47;100.00
54876;BME280;40764;48.472;8.166;2023-05-21T21:11:16;97844.56;;;15.32;100.00
54876;BME280;40764;48.472;8.166;2023-05-21T21:17:16;97848.25;;;15.15;100.00
54876;BME280;40764;48.472;8.166;2023-05-21T21:23:17;97855.66;;;15.23;100.00
54876;BME280;40764;48.472;8.166;2023-05-21T21:29:17;97853.50;;;15.08;100.00
54876;BME280;40764;48.472;8.166;2023-05-21T21:35:17;97852.34;;;15.09;100.00
54876;BME280;40764;48.472;8.166;2023-05-21T21:41:18;97854.97;;;15.05;100.00
54876;BME280;40764;48.472;8.166;2023-05-21T21:47:19;97863.44;;;14.92;100.00
54876;BME280;40764;48.472;8.166;2023-05-21T21:53:19;97864.78;;;14.85;100.00
54876;BME280;40764;48.472;8.166;2023-05-21T21:59:20;97862.84;;;14.86;100.00
54876;BME280;40764;48.472;8.166;2023-05-21T22:05:21;97858.34;;;14.73;100.00
54876;BME280;40764;48.472;8.166;2023-05-21T22:11:21;97858.88;;;14.66;100.00
54876;BME280;40764;48.472;8.166;2023-05-21T22:17:22;97862.91;;;14.69;100.00
54876;BME280;40764;48.472;8.166;2023-05-21T22:23:22;97862.84;;;14.48;100.00
54876;BME280;40764;48.472;8.166;2023-05-21T22:29:22;97876.91;;;14.38;100.00
54876;BME280;40764;48.472;8.166;2023-05-21T22:35:23;97868.69;;;14.29;100.00
54876;BME280;40764;48.472;8.166;2023-05-21T22:41:23;97877.56;;;14.35;100.00
54876;BME280;40764;48.472;8.166;2023-05-21T22:47:23;97876.91;;;14.29;100.00
54876;BME280;40764;48.472;8.166;2023-05-21T22:53:25;97869.81;;;14.28;100.00
54876;BME280;40764;48.472;8.166;2023-05-21T22:59:28;97874.19;;;14.20;100.00
54876;BME280;40764;48.472;8.166;2023-05-21T23:05:29;97862.91;;;14.05;100.00
54876;BME280;40764;48.472;8.166;2023-05-21T23:11:29;97862.25;;;14.08;100.00
54876;BME280;40764;48.472;8.166;2023-05-21T23:17:30;97871.44;;;14.12;100.00
54876;BME280;40764;48.472;8.166;2023-05-21T23:23:30;97859.16;;;14.09;100.00
54876;BME280;40764;48.472;8.166;2023-05-21T23:29:30;97861.47;;;13.99;100.00
54876;BME280;40764;48.472;8.166;2023-05-21T23:35:31;97861.47;;;13.90;100.00
54876;BME280;40764;48.472;8.166;2023-05-21T23:41:31;97857.56;;;14.00;100.00
54876;BME280;40764;48.472;8.166;2023-05-21T23:47:31;97854.84;;;14.00;100.00
54876;BME280;40764;48.472;8.166;2023-05-21T23:53:32;97862.91;;;13.87;100.00
54876;BME280;40764;48.472;8.166;2023-05-21T23:59:32;97857.78;;;13.69;100.00
